Farmers Store, North Carolina
Current Conditions -  °F | °C
As of 8:15 PM on Tuesday 21 Oct 2014 (Local Time) from KGEV Reporting Station
Clear Clear  
Wind Chill: 39°   Ceiling: Unl
Heat Index: 46°   Visibility: 10mi
Dew Point: 34°   Wind: 17mph
Humidity: 63%   Direction: 310°NW
Pressure: 29.99"   Gusts: 24mph
Location:  36.524°N, 81.538°W
Report Text: KGEV 220015Z AUTO 31015G21KT 10SM CLR 08/01 A2999 RMK AO2 T00760010
Loading
Personal Weather Stations






























Interactive Weather Map
Tropical Storm Tracking
New forecast layout! Learn more

10-Day Weather Forecast

Advertisements
Track Severe Weather on mobile